Time;durP1;ratioP1;P1;durP2;ratioP2;P2;SDS_P1;SDS_P2;PMS_P1;PMS_P2;Temp;Humidity;BMP_temperature;BMP_pressure;BME280_temperature;BME280_humidity;BME280_pressure;Samples;Min_cycle;Max_cycle;Signal;HPM_P1;HPM_P2
2022/06/27 00:01:35;;;;;;;7.55;1.63;;;;;;;27.37;36.68;100594.03;4937371;29;20055;-78
2022/06/27 00:04:20;;;;;;;21.35;1.75;;;;;;;27.34;36.85;100600.47;4939301;29;20059;-78
2022/06/27 00:07:05;;;;;;;10.23;1.50;;;;;;;27.36;37.38;100612.00;4934989;29;20043;-79
2022/06/27 00:09:50;;;;;;;10.45;1.30;;;;;;;27.28;38.10;100591.03;4934933;29;20409;-80
2022/06/27 00:12:36;;;;;;;2.85;0.57;;;;;;;27.36;38.11;100589.66;4945971;28;20059;-77
2022/06/27 00:15:20;;;;;;;6.45;1.38;;;;;;;27.29;38.35;100587.00;4938151;29;20054;-78
2022/06/27 00:18:05;;;;;;;7.10;1.10;;;;;;;27.24;38.53;100591.09;4946396;28;20520;-78
2022/06/27 00:20:51;;;;;;;7.53;1.55;;;;;;;27.21;39.01;100598.34;4953754;28;20054;-78
2022/06/27 00:23:36;;;;;;;8.80;1.30;;;;;;;27.22;38.84;100601.94;4953967;29;20070;-78
2022/06/27 00:26:21;;;;;;;10.52;1.90;;;;;;;27.18;39.06;100607.56;4953370;29;20054;-78
2022/06/27 00:29:06;;;;;;;8.07;1.55;;;;;;;27.21;39.07;100612.31;4957618;28;20527;-78
2022/06/27 00:31:51;;;;;;;7.43;1.60;;;;;;;27.23;39.47;100606.28;4947129;29;20050;-79
2022/06/27 00:34:37;;;;;;;6.40;0.80;;;;;;;27.21;39.52;100603.94;4942589;29;20066;-79
2022/06/27 00:37:22;;;;;;;3.17;0.90;;;;;;;27.20;39.67;100605.16;4952945;29;20051;-80
2022/06/27 00:40:08;;;;;;;10.15;1.70;;;;;;;27.15;40.14;100610.44;4946720;28;20054;-80
2022/06/27 00:42:52;;;;;;;8.05;1.20;;;;;;;27.14;40.04;100601.28;4950967;28;20047;-80
2022/06/27 00:45:37;;;;;;;4.40;1.77;;;;;;;27.07;41.11;100601.41;4915233;29;20071;-81
2022/06/27 00:48:22;;;;;;;4.28;1.30;;;;;;;27.04;41.25;100607.88;4918461;29;20528;-80
2022/06/27 00:51:09;;;;;;;10.85;1.35;;;;;;;27.09;41.55;100601.78;4915471;29;20055;-78
2022/06/27 00:53:55;;;;;;;9.65;1.23;;;;;;;27.06;41.91;100597.06;4933896;29;20050;-80
2022/06/27 00:56:40;;;;;;;4.63;1.15;;;;;;;27.03;41.60;100591.56;4957672;28;20556;-81
2022/06/27 00:59:25;;;;;;;4.22;1.50;;;;;;;27.02;42.03;100595.59;4931855;28;20066;-80
2022/06/27 01:02:10;;;;;;;4.22;0.93;;;;;;;27.02;42.26;100593.56;4945073;29;20046;-81
2022/06/27 01:04:55;;;;;;;9.30;1.67;;;;;;;26.99;42.11;100583.25;4953378;29;20046;-80
2022/06/27 01:07:40;;;;;;;10.10;1.38;;;;;;;26.99;42.18;100569.31;4954709;28;20519;-79
2022/06/27 01:10:25;;;;;;;5.40;1.42;;;;;;;26.92;42.48;100569.44;4953273;28;20046;-80
2022/06/27 01:13:10;;;;;;;5.47;1.20;;;;;;;26.89;42.67;100570.31;4948723;28;20051;-82
2022/06/27 01:15:55;;;;;;;7.35;1.17;;;;;;;26.81;43.05;100564.06;4948748;29;20431;-79
2022/06/27 01:18:42;;;;;;;10.15;1.60;;;;;;;26.78;43.16;100564.13;4946781;29;20443;-78
2022/06/27 01:21:31;;;;;;;6.88;1.23;;;;;;;26.76;43.55;100572.94;4946393;29;20038;-79
2022/06/27 01:24:18;;;;;;;5.80;1.45;;;;;;;26.75;43.86;100563.00;4954979;29;20523;-80
2022/06/27 01:27:06;;;;;;;5.63;1.20;;;;;;;26.78;44.27;100562.13;4953212;29;20074;-81
2022/06/27 01:29:50;;;;;;;8.48;1.23;;;;;;;26.69;44.10;100563.91;4956377;28;20069;-80
2022/06/27 01:32:37;;;;;;;11.65;1.85;;;;;;;26.72;43.95;100557.47;4952774;29;20038;-80
2022/06/27 01:35:22;;;;;;;6.00;1.63;;;;;;;26.70;44.58;100548.75;4926243;29;20054;-80
2022/06/27 01:38:07;;;;;;;9.55;1.67;;;;;;;26.67;44.66;100547.59;4943487;29;20051;-79
2022/06/27 01:40:52;;;;;;;7.57;1.77;;;;;;;26.57;45.32;100543.00;4921060;29;20054;-78
2022/06/27 01:43:37;;;;;;;18.23;1.40;;;;;;;26.56;45.57;100530.31;4942347;29;20050;-80
2022/06/27 01:46:22;;;;;;;5.38;1.45;;;;;;;26.52;45.73;100539.94;4957285;29;20519;-79
2022/06/27 01:49:07;;;;;;;10.20;1.60;;;;;;;26.48;45.74;100530.84;4968460;28;20058;-81
2022/06/27 01:51:53;;;;;;;6.00;1.38;;;;;;;26.46;45.88;100530.50;4953138;29;20067;-80
2022/06/27 01:54:38;;;;;;;4.65;1.50;;;;;;;26.44;46.10;100528.13;4963428;28;20062;-79
2022/06/27 01:57:24;;;;;;;7.93;1.88;;;;;;;26.45;46.17;100521.34;4939735;29;20043;-80
2022/06/27 02:00:12;;;;;;;6.78;1.88;;;;;;;26.43;46.48;100514.63;4953748;29;20058;-80
2022/06/27 02:03:19;;;;;;;6.25;1.70;;;;;;;26.39;46.75;100518.28;4958357;28;20046;-79
2022/06/27 02:06:04;;;;;;;6.03;1.92;;;;;;;26.38;46.74;100522.28;4957879;28;20431;-80
2022/06/27 02:08:53;;;;;;;8.30;2.10;;;;;;;26.34;47.06;100518.78;4948214;29;20407;-79
2022/06/27 02:11:40;;;;;;;10.10;1.92;;;;;;;26.34;47.38;100507.63;4929768;29;20046;-80
2022/06/27 02:14:30;;;;;;;5.82;1.65;;;;;;;26.34;47.31;100501.25;4971348;28;20066;-78
2022/06/27 02:17:16;;;;;;;8.25;1.98;;;;;;;26.35;47.23;100500.84;4944773;28;20058;-78
2022/06/27 02:20:03;;;;;;;11.85;1.58;;;;;;;26.31;47.14;100510.47;4948027;28;20050;-78
2022/06/27 02:22:48;;;;;;;7.75;2.15;;;;;;;26.29;47.43;100504.53;4943902;29;20042;-78
2022/06/27 02:25:33;;;;;;;10.00;2.00;;;;;;;26.30;47.12;100506.91;4936555;29;20051;-77
2022/06/27 02:28:22;;;;;;;9.18;1.85;;;;;;;26.34;47.23;100512.41;4936499;29;20063;-79
2022/06/27 02:31:08;;;;;;;10.30;2.33;;;;;;;26.35;47.19;100519.56;4936703;29;20520;-79
2022/06/27 02:33:54;;;;;;;10.15;1.90;;;;;;;26.31;47.49;100513.28;4935978;29;20424;-78
2022/06/27 02:36:41;;;;;;;10.20;1.70;;;;;;;26.30;47.52;100511.69;4941961;29;20054;-81
2022/06/27 02:39:31;;;;;;;7.85;1.98;;;;;;;26.30;47.29;100517.25;4941718;28;20046;-80
2022/06/27 02:42:17;;;;;;;12.13;2.65;;;;;;;26.30;47.19;100512.47;4968610;28;20412;-79
2022/06/27 02:45:04;;;;;;;10.48;2.92;;;;;;;26.28;47.01;100517.69;4948183;29;20046;-79
2022/06/27 02:47:50;;;;;;;6.72;1.58;;;;;;;26.30;47.19;100526.41;4955857;29;20507;-76
2022/06/27 02:50:38;;;;;;;7.50;1.88;;;;;;;26.32;47.44;100540.69;4954965;28;20059;-78
2022/06/27 02:53:27;;;;;;;7.50;1.63;;;;;;;26.35;46.87;100541.88;4955999;29;20058;-77
2022/06/27 02:56:26;;;;;;;12.10;2.20;;;;;;;26.37;47.21;100543.00;4941019;28;20526;-77
2022/06/27 02:59:19;;;;;;;12.95;2.75;;;;;;;26.38;47.14;100552.94;4945941;28;20054;-78
2022/06/27 03:02:09;;;;;;;7.20;1.67;;;;;;;26.37;46.96;100554.16;4939569;29;20051;-77
2022/06/27 03:05:12;;;;;;;10.55;2.63;;;;;;;26.31;47.42;100553.06;4946253;29;20054;-77
2022/06/27 03:07:58;;;;;;;11.95;1.95;;;;;;;26.27;47.45;100555.13;4954799;29;20046;-78
2022/06/27 03:10:44;;;;;;;7.78;1.88;;;;;;;26.19;47.81;100550.09;4955377;28;20050;-78
2022/06/27 03:13:29;;;;;;;8.77;1.85;;;;;;;26.23;47.77;100550.84;4954746;28;20408;-78
2022/06/27 03:16:18;;;;;;;8.05;2.33;;;;;;;26.11;48.14;100562.59;4948046;29;20051;-78
2022/06/27 03:19:03;;;;;;;12.13;2.10;;;;;;;24.55;53.13;100556.38;4967619;28;20046;-77
2022/06/27 03:22:02;;;;;;;14.38;2.25;;;;;;;25.12;52.07;100553.72;4942794;28;20412;-79
2022/06/27 03:24:51;;;;;;;8.80;1.67;;;;;;;25.39;51.23;100560.13;4948040;28;20515;-80
2022/06/27 03:27:36;;;;;;;9.00;1.73;;;;;;;25.58;50.29;100557.88;4944162;29;20046;-78
2022/06/27 03:30:21;;;;;;;8.77;1.77;;;;;;;25.77;50.04;100562.75;4949197;28;20062;-77
2022/06/27 03:33:09;;;;;;;10.10;2.28;;;;;;;25.93;49.48;100560.09;4950624;28;20511;-79
2022/06/27 03:36:04;;;;;;;5.40;1.50;;;;;;;25.95;49.26;100552.13;4946889;29;20046;-79
2022/06/27 03:38:51;;;;;;;7.35;2.22;;;;;;;26.07;48.87;100570.22;4939560;28;20042;-80
2022/06/27 03:41:38;;;;;;;7.97;1.92;;;;;;;26.03;49.81;100564.69;4952170;28;20514;-80
2022/06/27 03:44:23;;;;;;;4.85;1.52;;;;;;;26.15;49.84;100560.53;4942436;29;20042;-79
2022/06/27 03:47:10;;;;;;;4.35;1.85;;;;;;;26.10;50.16;100566.59;4946625;29;20046;-79
2022/06/27 03:50:16;;;;;;;9.70;1.40;;;;;;;26.02;50.82;100573.47;4946229;28;20054;-77
2022/06/27 03:53:02;;;;;;;10.15;2.50;;;;;;;26.02;50.42;100563.13;4963100;28;20046;-78
2022/06/27 03:55:52;;;;;;;6.82;1.92;;;;;;;26.11;50.14;100559.81;4957870;28;20047;-80
2022/06/27 03:58:37;;;;;;;12.52;2.03;;;;;;;26.14;50.49;100562.53;4936308;29;20055;-81
2022/06/27 04:01:22;;;;;;;4.85;1.60;;;;;;;25.97;50.89;100569.19;4935079;29;20304;-82
2022/06/27 04:04:07;;;;;;;6.55;2.42;;;;;;;26.08;50.85;100577.38;4949583;28;20058;-82
2022/06/27 04:06:52;;;;;;;7.38;2.20;;;;;;;26.08;50.64;100564.22;4935764;29;20542;-83
2022/06/27 04:09:37;;;;;;;11.80;1.45;;;;;;;26.18;50.44;100566.03;4933129;28;20523;-84
2022/06/27 04:12:22;;;;;;;11.05;2.97;;;;;;;26.26;50.19;100569.53;4951125;28;20042;-80
2022/06/27 04:15:26;;;;;;;21.10;1.85;;;;;;;26.22;49.94;100568.78;4953446;29;20054;-80
2022/06/27 04:18:30;;;;;;;11.27;2.50;;;;;;;26.02;50.26;100581.84;4933423;29;20051;-81
2022/06/27 04:21:18;;;;;;;9.35;1.95;;;;;;;26.21;50.13;100572.78;4944162;28;20046;-81
2022/06/27 04:24:11;;;;;;;10.05;2.00;;;;;;;26.19;49.71;100572.41;4932370;29;20470;-80
2022/06/27 04:27:04;;;;;;;6.78;1.73;;;;;;;26.04;49.98;100583.00;4957111;28;20046;-82
2022/06/27 04:29:50;;;;;;;6.00;2.00;;;;;;;26.03;50.00;100584.22;4955293;28;20287;-81
2022/06/27 04:32:36;;;;;;;12.95;2.50;;;;;;;25.74;50.27;100581.09;4928719;29;20062;-80
2022/06/27 04:35:21;;;;;;;16.60;3.50;;;;;;;25.67;51.11;100575.63;4957531;28;20128;-79
2022/06/27 04:38:07;;;;;;;12.13;2.53;;;;;;;25.65;50.82;100589.19;4952394;29;20050;-79
2022/06/27 04:41:10;;;;;;;6.13;2.20;;;;;;;25.69;50.91;100591.94;4938513;28;20062;-80
2022/06/27 04:43:59;;;;;;;8.00;2.42;;;;;;;25.63;51.42;100597.19;4940409;28;20054;-80
2022/06/27 04:46:48;;;;;;;13.50;2.42;;;;;;;25.72;50.66;100603.00;4945134;29;20124;-80
2022/06/27 04:49:52;;;;;;;39.83;4.35;;;;;;;25.59;51.59;100607.59;4942207;29;20051;-81
2022/06/27 04:52:38;;;;;;;11.20;2.88;;;;;;;25.47;52.36;100600.56;4936172;29;20054;-81
2022/06/27 04:55:24;;;;;;;7.22;3.45;;;;;;;25.42;53.12;100619.75;4953377;28;20424;-80
2022/06/27 04:58:09;;;;;;;8.32;2.80;;;;;;;25.43;53.56;100616.53;5081147;23;20062;-59
2022/06/27 05:00:55;;;;;;;17.45;4.18;;;;;;;25.10;55.27;100623.72;4969050;28;20417;-59
2022/06/27 05:03:58;;;;;;;8.63;4.75;;;;;;;24.97;56.62;100633.03;4972622;28;20054;-59
2022/06/27 05:06:49;;;;;;;9.75;3.65;;;;;;;25.21;56.42;100629.16;4966279;28;20042;-59
2022/06/27 05:09:34;;;;;;;23.88;2.95;;;;;;;25.14;56.96;100638.38;4958337;28;20405;-59
2022/06/27 05:12:19;;;;;;;19.90;3.50;;;;;;;25.25;56.76;100638.25;4972203;28;20054;-59
2022/06/27 05:15:04;;;;;;;10.27;3.38;;;;;;;25.37;57.16;100643.28;4962792;28;20410;-61
2022/06/27 05:17:49;;;;;;;8.98;2.75;;;;;;;25.64;55.75;100634.19;4952760;29;20051;-62
2022/06/27 05:20:34;;;;;;;15.48;3.00;;;;;;;25.66;55.97;100640.13;4953023;29;20054;-60
2022/06/27 05:23:19;;;;;;;14.95;3.22;;;;;;;25.96;55.27;100648.41;4958139;28;20050;-60
2022/06/27 05:26:05;;;;;;;13.98;3.35;;;;;;;25.91;55.27;100651.69;4958230;28;20434;-62
2022/06/27 05:28:52;;;;;;;13.05;3.92;;;;;;;25.86;54.84;100652.94;4961095;28;20050;-62
2022/06/27 05:31:37;;;;;;;14.98;3.35;;;;;;;26.00;54.66;100649.19;4952241;29;20062;-62
2022/06/27 05:34:23;;;;;;;13.20;3.88;;;;;;;26.22;54.17;100650.41;4957137;28;20062;-59
2022/06/27 05:37:08;;;;;;;11.27;3.60;;;;;;;26.46;53.31;100653.22;4962201;28;20050;-62
2022/06/27 05:39:53;;;;;;;9.95;2.85;;;;;;;26.67;52.79;100650.81;4956100;28;20054;-62
2022/06/27 05:42:38;;;;;;;7.65;2.78;;;;;;;26.75;52.34;100649.50;4962350;28;20062;-63
2022/06/27 05:45:24;;;;;;;9.35;2.70;;;;;;;26.62;52.47;100644.94;4956203;28;20042;-64
2022/06/27 05:48:27;;;;;;;15.30;2.97;;;;;;;26.89;51.76;100650.47;4954491;28;20054;-63
2022/06/27 05:51:32;;;;;;;;;;;;;;;26.89;51.34;100653.25;4951243;28;20046;-64
2022/06/27 05:54:19;;;;;;;4.10;1.70;;;;;;;26.95;51.51;100657.91;4967134;28;19914;-63
2022/06/27 05:57:05;;;;;;;5.20;2.63;;;;;;;27.04;51.33;100660.13;4975210;28;20050;-63
2022/06/27 05:59:53;;;;;;;118.70;29.40;;;;;;;27.11;51.34;100658.00;4975245;28;20046;-62
2022/06/27 06:02:38;;;;;;;7.75;2.50;;;;;;;27.22;50.85;100655.78;4975539;28;20650;-62
2022/06/27 06:05:24;;;;;;;12.05;3.33;;;;;;;27.34;50.66;100659.13;4975087;28;20042;-62
2022/06/27 06:08:11;;;;;;;8.98;2.30;;;;;;;27.43;50.57;100668.47;4974621;28;20684;-62
2022/06/27 06:10:57;;;;;;;8.20;2.88;;;;;;;27.24;50.88;100670.09;4955114;28;20062;-62
2022/06/27 06:13:43;;;;;;;12.15;2.60;;;;;;;27.46;50.42;100664.84;4974931;28;20517;-62
2022/06/27 06:16:29;;;;;;;11.27;2.22;;;;;;;27.44;49.69;100663.69;4974782;28;20054;-62
2022/06/27 06:19:15;;;;;;;11.40;2.50;;;;;;;27.53;49.77;100655.56;4974713;28;20069;-63
2022/06/27 06:21:59;;;;;;;10.65;2.53;;;;;;;27.60;49.62;100663.78;4974952;28;20053;-64
2022/06/27 06:24:47;;;;;;;7.43;2.03;;;;;;;27.67;49.40;100655.25;4975057;28;20065;-63
2022/06/27 06:27:35;;;;;;;22.33;3.10;;;;;;;27.81;49.10;100656.91;4948380;28;20046;-63
2022/06/27 06:30:22;;;;;;;17.27;2.50;;;;;;;27.81;48.90;100657.72;4954706;28;20051;-64
2022/06/27 06:33:08;;;;;;;18.77;3.13;;;;;;;27.86;48.67;100662.00;4957303;28;20050;-63
2022/06/27 06:35:55;;;;;;;12.68;1.88;;;;;;;27.87;48.47;100657.97;4958003;28;20067;-63
2022/06/27 06:38:41;;;;;;;9.88;2.92;;;;;;;27.81;49.11;100652.13;4975605;28;20042;-63
2022/06/27 06:41:26;;;;;;;20.60;2.30;;;;;;;27.86;48.97;100651.59;4974503;28;20548;-62
2022/06/27 06:44:11;;;;;;;7.57;2.72;;;;;;;28.08;48.72;100657.47;4974538;28;20053;-62
2022/06/27 06:47:19;;;;;;;9.30;3.00;;;;;;;28.26;48.30;100657.06;4975841;28;20402;-62
2022/06/27 06:50:08;;;;;;;9.38;1.70;;;;;;;28.22;48.54;100648.75;4972722;28;20061;-62
2022/06/27 06:52:53;;;;;;;15.02;2.10;;;;;;;28.26;48.38;100645.88;4956430;28;20540;-62
2022/06/27 06:55:38;;;;;;;7.15;1.73;;;;;;;28.48;48.51;100653.28;4957603;28;20042;-62
2022/06/27 06:58:25;;;;;;;12.38;2.33;;;;;;;28.68;47.72;100655.19;4946753;28;20258;-62
2022/06/27 07:01:09;;;;;;;7.93;2.28;;;;;;;28.65;47.52;100654.03;4962691;28;20070;-62
2022/06/27 07:03:55;;;;;;;8.68;1.67;;;;;;;28.76;46.99;100653.78;4954769;28;20054;-62
2022/06/27 07:06:41;;;;;;;10.32;2.22;;;;;;;28.84;47.10;100650.38;4955126;29;20054;-62
2022/06/27 07:09:25;;;;;;;9.50;1.98;;;;;;;28.82;47.07;100650.00;4954650;28;20050;-62
2022/06/27 07:12:11;;;;;;;14.07;3.20;;;;;;;28.86;47.59;100647.09;4953439;28;20070;-62
2022/06/27 07:14:57;;;;;;;13.18;2.28;;;;;;;28.91;46.60;100632.56;4955706;28;20046;-63
2022/06/27 07:17:45;;;;;;;15.40;2.13;;;;;;;29.10;46.36;100628.03;4954064;28;20260;-62
2022/06/27 07:20:30;;;;;;;10.52;1.95;;;;;;;29.22;46.57;100624.47;4954490;28;20410;-62
2022/06/27 07:23:15;;;;;;;8.05;1.58;;;;;;;29.08;46.10;100625.69;4953799;28;20070;-62
2022/06/27 07:26:00;;;;;;;6.15;2.20;;;;;;;29.26;45.98;100627.94;4954614;29;20058;-62
2022/06/27 07:28:46;;;;;;;9.85;2.55;;;;;;;29.22;45.67;100628.06;4954030;28;20050;-62
2022/06/27 07:31:32;;;;;;;8.80;2.10;;;;;;;29.33;45.27;100622.16;4949875;28;20053;-62
2022/06/27 07:34:20;;;;;;;6.82;2.35;;;;;;;29.43;44.78;100632.28;4952249;28;20046;-62
2022/06/27 07:37:04;;;;;;;6.35;1.48;;;;;;;29.41;44.75;100628.38;4956065;28;20407;-62
2022/06/27 07:39:49;;;;;;;11.45;2.90;;;;;;;29.53;44.40;100627.56;4956873;28;20058;-62
2022/06/27 07:42:35;;;;;;;5.32;1.52;;;;;;;29.66;44.12;100640.34;4960973;28;20051;-62
2022/06/27 07:45:22;;;;;;;6.22;1.60;;;;;;;29.67;43.71;100644.72;4960315;28;20054;-62
2022/06/27 07:48:08;;;;;;;9.70;1.80;;;;;;;29.82;43.69;100644.31;4970820;28;20118;-62
2022/06/27 07:50:54;;;;;;;9.98;2.08;;;;;;;29.86;43.32;100639.38;4973083;28;20531;-63
2022/06/27 07:53:39;;;;;;;8.25;2.13;;;;;;;29.88;43.49;100639.69;4973357;28;20046;-62
2022/06/27 07:56:26;;;;;;;18.63;2.50;;;;;;;29.89;43.71;100638.44;4966396;28;20062;-62
2022/06/27 07:59:10;;;;;;;7.63;2.20;;;;;;;30.13;43.84;100648.88;4955232;28;20062;-62
2022/06/27 08:01:56;;;;;;;7.03;1.70;;;;;;;30.13;42.80;100648.09;4964061;28;20053;-62
2022/06/27 08:04:42;;;;;;;10.95;2.00;;;;;;;30.18;42.88;100648.31;4953513;28;20046;-62
2022/06/27 08:07:27;;;;;;;13.00;2.08;;;;;;;30.27;42.73;100655.28;4953360;28;20066;-62
2022/06/27 08:10:11;;;;;;;10.20;2.20;;;;;;;30.29;42.44;100652.78;4952949;28;20054;-62
2022/06/27 08:12:57;;;;;;;7.40;2.22;;;;;;;30.38;42.03;100656.47;4954390;29;20054;-62
2022/06/27 08:15:42;;;;;;;7.47;1.75;;;;;;;30.46;42.19;100655.03;4953605;29;20054;-62
2022/06/27 08:18:30;;;;;;;20.77;2.35;;;;;;;30.53;42.09;100654.78;4958119;28;20050;-62
2022/06/27 08:21:19;;;;;;;6.55;2.08;;;;;;;30.49;41.18;100654.13;4951392;28;20057;-62
2022/06/27 08:24:07;;;;;;;8.32;2.10;;;;;;;30.60;40.74;100650.94;4978669;28;20407;-62
2022/06/27 08:26:53;;;;;;;12.77;1.88;;;;;;;30.63;40.43;100652.84;4951185;28;20041;-62
2022/06/27 08:29:38;;;;;;;7.90;1.67;;;;;;;30.68;40.14;100648.69;4952826;28;20603;-62
2022/06/27 08:32:23;;;;;;;7.60;1.48;;;;;;;30.70;39.69;100643.38;4945468;28;20050;-62
2022/06/27 08:35:08;;;;;;;16.77;1.75;;;;;;;30.75;39.13;100637.97;4952491;28;20059;-62
2022/06/27 08:37:54;;;;;;;7.80;1.42;;;;;;;30.72;38.31;100630.47;4952265;28;20051;-62
2022/06/27 08:40:39;;;;;;;13.55;2.00;;;;;;;30.81;37.46;100624.13;4947950;28;20434;-62
2022/06/27 08:43:26;;;;;;;9.55;1.67;;;;;;;30.75;36.81;100637.97;4945804;28;20062;-62
2022/06/27 08:46:15;;;;;;;6.90;1.35;;;;;;;30.79;35.87;100626.59;4952743;28;20050;-62
2022/06/27 08:49:02;;;;;;;11.93;2.17;;;;;;;30.85;36.60;100631.19;4966789;28;20042;-62
2022/06/27 08:51:48;;;;;;;26.85;2.95;;;;;;;30.93;36.47;100631.72;4948695;28;20053;-62
2022/06/27 08:54:32;;;;;;;12.40;2.35;;;;;;;31.01;32.70;100628.19;4953429;28;20042;-62
2022/06/27 08:57:18;;;;;;;11.00;1.60;;;;;;;31.18;31.73;100626.00;4952586;29;20054;-62
2022/06/27 09:00:06;;;;;;;11.90;1.48;;;;;;;31.26;32.01;100630.09;4953621;28;20073;-62
2022/06/27 09:02:51;;;;;;;8.43;1.30;;;;;;;31.25;31.95;100622.91;4953168;28;20049;-62
2022/06/27 09:05:37;;;;;;;5.97;1.30;;;;;;;31.25;32.06;100620.09;4952837;28;20537;-62
2022/06/27 09:08:22;;;;;;;11.25;2.47;;;;;;;31.13;31.10;100629.41;4952410;28;20054;-62
2022/06/27 09:11:07;;;;;;;9.85;1.85;;;;;;;31.34;30.46;100622.19;4967602;28;20050;-62
2022/06/27 09:13:52;;;;;;;5.88;1.30;;;;;;;31.25;31.02;100624.94;4970088;28;20065;-63
2022/06/27 09:16:37;;;;;;;14.32;1.20;;;;;;;31.32;30.58;100631.06;4965597;28;20051;-64
2022/06/27 09:19:45;;;;;;;16.05;2.22;;;;;;;31.51;31.20;100633.97;4942175;28;20049;-63
2022/06/27 09:22:29;;;;;;;23.00;2.97;;;;;;;31.49;31.39;100628.84;4947681;28;20205;-65
2022/06/27 09:25:20;;;;;;;7.05;1.30;;;;;;;31.32;31.54;100642.31;4948928;28;20398;-62
2022/06/27 09:28:04;;;;;;;12.00;1.50;;;;;;;31.40;31.05;100651.25;4952485;28;20525;-63
2022/06/27 09:30:52;;;;;;;12.15;1.80;;;;;;;31.60;31.36;100643.25;4951446;28;20074;-66
2022/06/27 09:33:39;;;;;;;8.68;2.03;;;;;;;31.76;31.13;100650.69;4941274;28;20047;-66
2022/06/27 09:36:27;;;;;;;9.60;1.00;;;;;;;31.80;30.91;100651.31;4944213;28;20417;-67
2022/06/27 09:39:29;;;;;;;5.63;1.58;;;;;;;31.84;30.51;100640.72;4945024;28;20154;-66
2022/06/27 09:42:14;;;;;;;15.82;1.48;;;;;;;31.93;30.96;100637.16;4957683;28;20061;-67
2022/06/27 09:45:02;;;;;;;8.95;1.40;;;;;;;31.91;30.49;100631.97;4949722;28;20042;-66
2022/06/27 09:47:47;;;;;;;8.80;1.27;;;;;;;31.83;30.33;100636.34;4946709;28;20042;-65
2022/06/27 09:50:37;;;;;;;27.08;2.75;;;;;;;31.89;30.22;100634.50;4956148;28;20041;-67
2022/06/27 09:53:27;;;;;;;6.65;1.30;;;;;;;31.95;30.15;100618.53;4958894;28;20058;-66
2022/06/27 09:56:14;;;;;;;121.03;7.18;;;;;;;32.01;30.46;100621.53;4948225;28;20070;-66
2022/06/27 09:58:59;;;;;;;10.70;1.92;;;;;;;32.09;31.13;100622.81;4938346;28;20036;-65
2022/06/27 10:01:44;;;;;;;10.70;1.50;;;;;;;32.05;30.55;100619.38;4946605;28;20094;-66
2022/06/27 10:04:30;;;;;;;8.85;1.30;;;;;;;32.07;31.29;100617.66;4953886;28;20046;-66
2022/06/27 10:07:17;;;;;;;7.57;1.73;;;;;;;32.10;29.78;100627.97;4948931;28;20046;-66
2022/06/27 10:10:02;;;;;;;7.72;0.93;;;;;;;32.37;30.13;100624.44;4948855;28;20054;-66
2022/06/27 10:12:58;;;;;;;7.22;1.52;;;;;;;32.52;29.93;100624.63;4943766;28;20368;-66
2022/06/27 10:15:44;;;;;;;8.73;1.52;;;;;;;32.35;30.07;100632.59;4955423;28;20074;-66
2022/06/27 10:18:57;;;;;;;5.72;1.25;;;;;;;32.51;30.04;100623.06;4958537;28;20414;-66
2022/06/27 10:21:45;;;;;;;11.32;2.25;;;;;;;32.43;29.94;100616.16;4948575;28;20418;-65
2022/06/27 10:24:32;;;;;;;3.53;1.05;;;;;;;32.51;29.66;100614.63;4954159;28;20050;-66
2022/06/27 10:27:30;;;;;;;10.25;1.50;;;;;;;32.43;30.20;100613.34;4977271;28;20057;-65
2022/06/27 10:30:38;;;;;;;9.95;2.28;;;;;;;32.58;29.66;100611.47;4965869;28;20057;-66
2022/06/27 10:33:26;;;;;;;12.95;2.22;;;;;;;32.56;29.98;100608.38;4956272;28;20116;-66
2022/06/27 10:36:14;;;;;;;7.00;1.33;;;;;;;32.63;29.91;100611.63;4957721;28;20054;-66
2022/06/27 10:39:01;;;;;;;17.30;2.08;;;;;;;32.68;29.62;100616.69;4957119;28;20124;-66
2022/06/27 10:41:45;;;;;;;11.18;1.20;;;;;;;32.78;29.34;100606.19;4963420;28;20076;-66
2022/06/27 10:44:31;;;;;;;12.48;1.63;;;;;;;32.87;28.94;100606.16;4955525;29;20074;-66
2022/06/27 10:47:33;;;;;;;8.60;1.20;;;;;;;32.94;28.42;100600.22;4945468;28;20123;-63
2022/06/27 10:50:21;;;;;;;6.00;1.05;;;;;;;33.03;28.78;100600.19;4943433;28;20046;-66
2022/06/27 10:53:18;;;;;;;13.23;1.50;;;;;;;33.02;28.29;100600.66;4950109;28;20050;-66
2022/06/27 10:56:31;;;;;;;5.25;1.80;;;;;;;32.97;28.53;100602.09;4956694;28;20062;-66
2022/06/27 10:59:16;;;;;;;8.00;1.40;;;;;;;33.16;28.67;100596.41;4974374;23;20112;-84
2022/06/27 11:02:01;;;;;;;13.10;2.28;;;;;;;33.13;28.81;100592.50;4951423;29;20058;-84
2022/06/27 11:04:46;;;;;;;12.45;1.52;;;;;;;33.25;28.21;100590.78;4972599;28;20050;-85
2022/06/27 11:07:31;;;;;;;6.53;1.60;;;;;;;33.06;28.59;100604.13;4955950;28;20054;-84
2022/06/27 11:10:17;;;;;;;10.88;1.88;;;;;;;33.03;27.87;100596.59;4943010;29;20045;-81
2022/06/27 11:13:02;;;;;;;14.95;1.50;;;;;;;33.35;27.84;100586.69;4954541;28;20059;-81
2022/06/27 11:15:51;;;;;;;11.18;1.52;;;;;;;33.00;28.12;100589.88;4950622;29;20318;-81
2022/06/27 11:18:40;;;;;;;9.93;1.85;;;;;;;33.10;27.88;100585.78;4938876;29;20042;-81
2022/06/27 11:21:32;;;;;;;9.65;1.23;;;;;;;33.28;27.80;100584.97;4954520;28;20042;-81
2022/06/27 11:24:17;;;;;;;14.05;2.22;;;;;;;33.18;28.29;100579.81;4949523;29;20054;-81
2022/06/27 11:27:02;;;;;;;10.38;1.90;;;;;;;33.31;27.92;100583.25;4937806;29;20050;-81
2022/06/27 11:32:54;;;;;;;6.45;1.70;;;;;;;33.47;28.13;100578.00;4943887;28;20046;-81
2022/06/27 11:35:39;;;;;;;20.63;3.08;;;;;;;33.50;27.03;100573.47;4936185;28;20058;-81
2022/06/27 11:38:31;;;;;;;11.63;1.58;;;;;;;33.52;26.74;100582.22;4936048;29;20061;-81
2022/06/27 11:41:26;;;;;;;11.68;2.00;;;;;;;33.55;26.80;100575.63;4941558;29;20050;-81
2022/06/27 11:44:12;;;;;;;14.43;2.58;;;;;;;33.63;26.96;100571.19;4934878;29;20046;-82
2022/06/27 11:47:04;;;;;;;4.85;1.25;;;;;;;33.43;26.50;100566.13;4943841;28;20414;-81
2022/06/27 11:50:01;;;;;;;22.02;3.00;;;;;;;33.68;27.28;100558.53;4932657;29;20043;-82
2022/06/27 11:52:49;;;;;;;10.23;1.20;;;;;;;33.83;26.79;100557.31;4947328;29;20054;-81
2022/06/27 11:55:34;;;;;;;18.45;2.00;;;;;;;33.87;26.38;100549.47;4945665;28;20050;-81
2022/06/27 11:58:19;;;;;;;5.75;1.20;;;;;;;33.80;25.78;100549.03;4943519;28;20400;-81
2022/06/27 12:01:09;;;;;;;16.27;2.55;;;;;;;33.70;26.17;100548.31;4951996;28;20059;-82
2022/06/27 12:04:12;;;;;;;21.92;2.17;;;;;;;33.73;26.07;100550.16;4944150;29;20062;-81
2022/06/27 12:07:04;;;;;;;11.95;1.92;;;;;;;33.82;26.11;100546.53;4936679;29;20043;-81
2022/06/27 12:09:51;;;;;;;14.88;2.53;;;;;;;33.81;25.22;100540.09;4945105;28;20400;-81
2022/06/27 12:12:44;;;;;;;11.20;1.90;;;;;;;33.86;25.02;100549.94;4942706;29;20042;-81
2022/06/27 12:15:29;;;;;;;27.77;2.83;;;;;;;33.61;25.62;100534.22;4945443;29;20050;-81
2022/06/27 12:18:14;;;;;;;19.00;3.42;;;;;;;33.84;25.73;100547.59;4959708;29;20054;-81
2022/06/27 12:20:59;;;;;;;5.72;1.65;;;;;;;33.90;25.95;100539.25;4960773;29;20050;-81
2022/06/27 12:23:43;;;;;;;12.20;2.42;;;;;;;33.93;24.97;100543.94;4952671;29;20508;-82
2022/06/27 12:26:28;;;;;;;10.55;1.88;;;;;;;34.06;24.96;100535.22;4935997;29;20050;-80
2022/06/27 12:29:13;;;;;;;7.35;2.15;;;;;;;34.01;24.58;100544.34;4953129;28;20439;-80
2022/06/27 12:31:58;;;;;;;20.63;2.25;;;;;;;34.03;24.78;100544.66;4945078;29;20408;-80
2022/06/27 12:34:43;;;;;;;16.17;2.97;;;;;;;34.11;24.34;100540.22;4938495;28;20048;-80
2022/06/27 12:37:28;;;;;;;18.45;3.38;;;;;;;34.23;24.46;100542.81;4942453;28;20047;-81
2022/06/27 12:40:12;;;;;;;17.77;3.00;;;;;;;34.06;23.37;100549.34;4940650;28;20067;-80
2022/06/27 12:42:57;;;;;;;14.20;3.72;;;;;;;34.36;24.05;100548.19;4939517;29;20067;-81
2022/06/27 12:45:41;;;;;;;17.83;3.53;;;;;;;34.44;24.27;100557.84;4934918;29;20046;-80
2022/06/27 12:48:26;;;;;;;46.33;5.25;;;;;;;34.40;22.90;100557.25;4952296;28;20046;-81
2022/06/27 12:51:11;;;;;;;18.63;2.92;;;;;;;34.35;21.71;100555.88;4949274;29;20337;-81
2022/06/27 12:53:56;;;;;;;19.45;3.03;;;;;;;34.27;22.55;100568.03;4937035;29;20051;-81
2022/06/27 12:56:41;;;;;;;11.18;2.25;;;;;;;34.16;23.41;100556.47;4946701;29;20066;-80
2022/06/27 12:59:26;;;;;;;18.58;2.20;;;;;;;34.26;23.15;100561.59;4945732;29;20523;-81